sensor_id;sensor_type;location;lat;lon;timestamp;pressure;altitude;pressure_sealevel;temperature;humidity
72925;BME280;61070;50.794;7.054;2023-04-29T00:00:01;100556.91;;;12.88;100.00
72925;BME280;61070;50.794;7.054;2023-04-29T00:02:26;100566.03;;;12.76;100.00
72925;BME280;61070;50.794;7.054;2023-04-29T00:04:52;100563.19;;;12.86;100.00
72925;BME280;61070;50.794;7.054;2023-04-29T00:07:18;100564.38;;;12.72;100.00
72925;BME280;61070;50.794;7.054;2023-04-29T00:09:44;100567.84;;;12.76;100.00
72925;BME280;61070;50.794;7.054;2023-04-29T00:12:09;100568.00;;;12.68;100.00
72925;BME280;61070;50.794;7.054;2023-04-29T00:14:35;100573.84;;;12.84;100.00
72925;BME280;61070;50.794;7.054;2023-04-29T00:17:00;100566.63;;;12.89;100.00
72925;BME280;61070;50.794;7.054;2023-04-29T00:19:26;100577.44;;;12.83;100.00
72925;BME280;61070;50.794;7.054;2023-04-29T00:21:51;100571.38;;;12.76;100.00
72925;BME280;61070;50.794;7.054;2023-04-29T00:24:18;100571.47;;;12.72;100.00
72925;BME280;61070;50.794;7.054;2023-04-29T00:26:44;100573.44;;;12.64;100.00
72925;BME280;61070;50.794;7.054;2023-04-29T00:29:09;100583.16;;;12.65;100.00
72925;BME280;61070;50.794;7.054;2023-04-29T00:31:34;100582.47;;;12.55;100.00
72925;BME280;61070;50.794;7.054;2023-04-29T00:34:01;100592.22;;;12.54;100.00
72925;BME280;61070;50.794;7.054;2023-04-29T00:36:26;100591.38;;;12.52;100.00
72925;BME280;61070;50.794;7.054;2023-04-29T00:38:52;100595.00;;;12.50;100.00
72925;BME280;61070;50.794;7.054;2023-04-29T00:41:17;100595.00;;;12.50;100.00
72925;BME280;61070;50.794;7.054;2023-04-29T00:43:43;100595.72;;;12.58;100.00
72925;BME280;61070;50.794;7.054;2023-04-29T00:46:09;100601.97;;;12.54;100.00
72925;BME280;61070;50.794;7.054;2023-04-29T00:48:34;100609.13;;;12.52;100.00
72925;BME280;61070;50.794;7.054;2023-04-29T00:51:00;100611.66;;;12.57;100.00
72925;BME280;61070;50.794;7.054;2023-04-29T00:53:26;100603.88;;;12.49;100.00
72925;BME280;61070;50.794;7.054;2023-04-29T00:55:52;100611.91;;;12.46;100.00
72925;BME280;61070;50.794;7.054;2023-04-29T00:58:18;100607.47;;;12.45;100.00
72925;BME280;61070;50.794;7.054;2023-04-29T01:00:44;100606.59;;;12.44;100.00
72925;BME280;61070;50.794;7.054;2023-04-29T01:03:11;100611.13;;;12.41;100.00
72925;BME280;61070;50.794;7.054;2023-04-29T01:05:37;100616.63;;;12.32;100.00
72925;BME280;61070;50.794;7.054;2023-04-29T01:10:53;100608.66;;;12.32;100.00
72925;BME280;61070;50.794;7.054;2023-04-29T01:13:29;100614.22;;;12.19;100.00
72925;BME280;61070;50.794;7.054;2023-04-29T01:16:03;100613.19;;;12.27;99.53
72925;BME280;61070;50.794;7.054;2023-04-29T01:18:33;100621.22;;;12.22;99.63
72925;BME280;61070;50.794;7.054;2023-04-29T01:20:59;100615.25;;;12.12;99.40
72925;BME280;61070;50.794;7.054;2023-04-29T01:23:25;100617.00;;;12.13;99.29
72925;BME280;61070;50.794;7.054;2023-04-29T01:25:51;100624.81;;;12.21;98.90
72925;BME280;61070;50.794;7.054;2023-04-29T01:28:54;100618.91;;;12.07;97.16
72925;BME280;61070;50.794;7.054;2023-04-29T01:31:28;100630.50;;;12.03;97.91
72925;BME280;61070;50.794;7.054;2023-04-29T01:34:10;100630.41;;;12.06;95.96
72925;BME280;61070;50.794;7.054;2023-04-29T01:37:03;100628.78;;;11.99;95.11
72925;BME280;61070;50.794;7.054;2023-04-29T01:44:52;100641.31;;;11.92;94.74
72925;BME280;61070;50.794;7.054;2023-04-29T01:47:19;100640.34;;;11.96;94.66
72925;BME280;61070;50.794;7.054;2023-04-29T01:49:45;100643.94;;;11.93;95.60
72925;BME280;61070;50.794;7.054;2023-04-29T01:52:11;100641.31;;;11.92;95.98
72925;BME280;61070;50.794;7.054;2023-04-29T01:54:37;100639.59;;;11.89;95.54
72925;BME280;61070;50.794;7.054;2023-04-29T01:57:02;100641.13;;;12.00;95.83
72925;BME280;61070;50.794;7.054;2023-04-29T01:59:28;100632.38;;;11.96;95.31
72925;BME280;61070;50.794;7.054;2023-04-29T02:01:53;100638.66;;;11.92;95.51
72925;BME280;61070;50.794;7.054;2023-04-29T02:04:20;100639.66;;;11.85;96.52
72925;BME280;61070;50.794;7.054;2023-04-29T02:06:45;100641.50;;;11.81;97.11
72925;BME280;61070;50.794;7.054;2023-04-29T02:09:11;100638.06;;;11.73;96.89
72925;BME280;61070;50.794;7.054;2023-04-29T02:11:36;100639.88;;;11.71;97.35
72925;BME280;61070;50.794;7.054;2023-04-29T02:14:01;100642.41;;;11.80;97.51
72925;BME280;61070;50.794;7.054;2023-04-29T02:16:26;100653.06;;;11.76;97.53
72925;BME280;61070;50.794;7.054;2023-04-29T02:18:52;100645.28;;;11.65;97.90
72925;BME280;61070;50.794;7.054;2023-04-29T02:21:17;100647.13;;;11.61;98.79
72925;BME280;61070;50.794;7.054;2023-04-29T02:23:42;100647.06;;;11.64;99.04
72925;BME280;61070;50.794;7.054;2023-04-29T02:26:08;100653.34;;;11.59;98.83
72925;BME280;61070;50.794;7.054;2023-04-29T02:28:34;100659.34;;;11.70;98.83
72925;BME280;61070;50.794;7.054;2023-04-29T02:31:00;100663.00;;;11.63;99.37
72925;BME280;61070;50.794;7.054;2023-04-29T02:33:25;100660.31;;;11.64;98.74
72925;BME280;61070;50.794;7.054;2023-04-29T02:35:51;100665.81;;;11.52;99.57
72925;BME280;61070;50.794;7.054;2023-04-29T02:38:16;100666.81;;;11.47;98.97
72925;BME280;61070;50.794;7.054;2023-04-29T02:40:45;100664.06;;;11.53;98.84
72925;BME280;61070;50.794;7.054;2023-04-29T02:43:11;100660.47;;;11.57;99.23
72925;BME280;61070;50.794;7.054;2023-04-29T02:45:37;100670.03;;;11.65;99.08
72925;BME280;61070;50.794;7.054;2023-04-29T02:48:03;100664.97;;;11.52;99.10
72925;BME280;61070;50.794;7.054;2023-04-29T02:50:29;100667.56;;;11.55;98.78
72925;BME280;61070;50.794;7.054;2023-04-29T02:52:54;100671.28;;;11.45;99.35
72925;BME280;61070;50.794;7.054;2023-04-29T02:55:19;100682.75;;;11.47;99.81
72925;BME280;61070;50.794;7.054;2023-04-29T02:57:45;100675.47;;;11.58;99.13
72925;BME280;61070;50.794;7.054;2023-04-29T03:00:11;100682.66;;;11.51;99.67
72925;BME280;61070;50.794;7.054;2023-04-29T03:02:36;100677.47;;;11.45;100.00
72925;BME280;61070;50.794;7.054;2023-04-29T03:05:04;100677.41;;;11.48;99.77
72925;BME280;61070;50.794;7.054;2023-04-29T03:07:30;100686.25;;;11.47;99.29
72925;BME280;61070;50.794;7.054;2023-04-29T03:09:56;100679.47;;;11.29;100.00
72925;BME280;61070;50.794;7.054;2023-04-29T03:12:21;100682.75;;;11.47;100.00
72925;BME280;61070;50.794;7.054;2023-04-29T03:14:47;100684.72;;;11.34;100.00
72925;BME280;61070;50.794;7.054;2023-04-29T03:17:13;100687.38;;;11.31;100.00
72925;BME280;61070;50.794;7.054;2023-04-29T03:19:38;100689.31;;;11.21;100.00
72925;BME280;61070;50.794;7.054;2023-04-29T03:22:03;100684.81;;;11.26;100.00
72925;BME280;61070;50.794;7.054;2023-04-29T03:24:29;100690.94;;;11.30;100.00
72925;BME280;61070;50.794;7.054;2023-04-29T03:26:54;100689.25;;;11.26;100.00
72925;BME280;61070;50.794;7.054;2023-04-29T03:29:19;100690.09;;;11.28;100.00
72925;BME280;61070;50.794;7.054;2023-04-29T03:31:45;100697.13;;;11.30;99.91
72925;BME280;61070;50.794;7.054;2023-04-29T03:34:11;100689.31;;;11.21;100.00
72925;BME280;61070;50.794;7.054;2023-04-29T03:36:38;100687.56;;;11.19;100.00
72925;BME280;61070;50.794;7.054;2023-04-29T03:39:03;100690.19;;;11.20;100.00
72925;BME280;61070;50.794;7.054;2023-04-29T03:41:29;100690.13;;;11.26;100.00
72925;BME280;61070;50.794;7.054;2023-04-29T03:43:54;100689.28;;;11.23;100.00
72925;BME280;61070;50.794;7.054;2023-04-29T03:46:24;100694.69;;;11.17;100.00
72925;BME280;61070;50.794;7.054;2023-04-29T03:48:50;100692.34;;;10.94;100.00
72925;BME280;61070;50.794;7.054;2023-04-29T03:51:16;100695.81;;;10.99;100.00
72925;BME280;61070;50.794;7.054;2023-04-29T03:53:41;100694.06;;;10.99;100.00
72925;BME280;61070;50.794;7.054;2023-04-29T03:56:06;100693.25;;;10.93;100.00
72925;BME280;61070;50.794;7.054;2023-04-29T03:58:32;100698.53;;;10.94;100.00
72925;BME280;61070;50.794;7.054;2023-04-29T04:00:57;100703.03;;;10.88;100.00
72925;BME280;61070;50.794;7.054;2023-04-29T04:03:22;100702.16;;;10.89;100.00
72925;BME280;61070;50.794;7.054;2023-04-29T04:05:49;100709.25;;;10.85;100.00
72925;BME280;61070;50.794;7.054;2023-04-29T04:08:15;100711.13;;;10.75;100.00
72925;BME280;61070;50.794;7.054;2023-04-29T04:10:40;100712.84;;;10.81;100.00
72925;BME280;61070;50.794;7.054;2023-04-29T04:13:05;100718.19;;;10.75;100.00
72925;BME280;61070;50.794;7.054;2023-04-29T04:15:31;100723.63;;;10.66;100.00
72925;BME280;61070;50.794;7.054;2023-04-29T04:17:56;100716.50;;;10.71;100.00
72925;BME280;61070;50.794;7.054;2023-04-29T04:20:21;100725.41;;;10.64;100.00
72925;BME280;61070;50.794;7.054;2023-04-29T04:22:47;100729.88;;;10.60;100.00
72925;BME280;61070;50.794;7.054;2023-04-29T04:25:12;100740.59;;;10.48;100.00
72925;BME280;61070;50.794;7.054;2023-04-29T04:27:37;100728.34;;;10.38;100.00
72925;BME280;61070;50.794;7.054;2023-04-29T04:30:03;100730.91;;;10.45;100.00
72925;BME280;61070;50.794;7.054;2023-04-29T04:32:28;100737.13;;;10.43;100.00
72925;BME280;61070;50.794;7.054;2023-04-29T04:34:53;100745.97;;;10.40;100.00
72925;BME280;61070;50.794;7.054;2023-04-29T04:37:19;100751.28;;;10.42;100.00
72925;BME280;61070;50.794;7.054;2023-04-29T04:39:44;100752.22;;;10.35;100.00
72925;BME280;61070;50.794;7.054;2023-04-29T04:42:10;100754.00;;;10.33;100.00
72925;BME280;61070;50.794;7.054;2023-04-29T04:44:35;100759.25;;;10.37;100.00
72925;BME280;61070;50.794;7.054;2023-04-29T04:47:01;100757.59;;;10.26;100.00
72925;BME280;61070;50.794;7.054;2023-04-29T04:49:27;100767.28;;;10.27;100.00
72925;BME280;61070;50.794;7.054;2023-04-29T04:51:52;100770.88;;;10.19;100.00
72925;BME280;61070;50.794;7.054;2023-04-29T04:54:18;100770.91;;;10.13;100.00
72925;BME280;61070;50.794;7.054;2023-04-29T04:56:43;100776.34;;;9.95;100.00
72925;BME280;61070;50.794;7.054;2023-04-29T04:59:09;100783.38;;;10.02;100.00
72925;BME280;61070;50.794;7.054;2023-04-29T05:01:34;100787.00;;;9.90;100.00
72925;BME280;61070;50.794;7.054;2023-04-29T05:03:59;100788.78;;;9.84;100.00
72925;BME280;61070;50.794;7.054;2023-04-29T05:06:28;100788.75;;;9.90;100.00
72925;BME280;61070;50.794;7.054;2023-04-29T05:08:53;100799.19;;;10.07;100.00
72925;BME280;61070;50.794;7.054;2023-04-29T05:11:20;100802.91;;;9.87;100.00
72925;BME280;61070;50.794;7.054;2023-04-29T05:13:46;100797.53;;;9.95;100.00
72925;BME280;61070;50.794;7.054;2023-04-29T05:16:12;100820.47;;;9.98;100.00
72925;BME280;61070;50.794;7.054;2023-04-29T05:18:37;100820.47;;;9.93;100.00
72925;BME280;61070;50.794;7.054;2023-04-29T05:21:02;100821.38;;;9.90;100.00
72925;BME280;61070;50.794;7.054;2023-04-29T05:23:28;100824.06;;;9.86;100.00
72925;BME280;61070;50.794;7.054;2023-04-29T05:25:54;100835.47;;;9.94;100.00
72925;BME280;61070;50.794;7.054;2023-04-29T05:28:19;100832.97;;;9.73;100.00
72925;BME280;61070;50.794;7.054;2023-04-29T05:30:44;100829.41;;;9.78;100.00
72925;BME280;61070;50.794;7.054;2023-04-29T05:33:10;100832.00;;;9.83;100.00
72925;BME280;61070;50.794;7.054;2023-04-29T05:35:36;100832.97;;;9.76;100.00
72925;BME280;61070;50.794;7.054;2023-04-29T05:38:02;100834.66;;;9.81;100.00
72925;BME280;61070;50.794;7.054;2023-04-29T05:40:27;100840.78;;;9.91;100.00
72925;BME280;61070;50.794;7.054;2023-04-29T05:42:53;100847.88;;;9.86;100.00
72925;BME280;61070;50.794;7.054;2023-04-29T05:45:18;100847.88;;;9.84;100.00
72925;BME280;61070;50.794;7.054;2023-04-29T05:47:43;100850.53;;;9.86;100.00
72925;BME280;61070;50.794;7.054;2023-04-29T05:50:09;100853.09;;;9.95;100.00
72925;BME280;61070;50.794;7.054;2023-04-29T05:52:35;100860.19;;;9.90;100.00
72925;BME280;61070;50.794;7.054;2023-04-29T05:55:01;100868.06;;;9.96;100.00
72925;BME280;61070;50.794;7.054;2023-04-29T05:57:26;100869.84;;;9.99;100.00
72925;BME280;61070;50.794;7.054;2023-04-29T05:59:51;100864.56;;;9.99;100.00
72925;BME280;61070;50.794;7.054;2023-04-29T06:02:19;100867.97;;;10.14;100.00
72925;BME280;61070;50.794;7.054;2023-04-29T06:04:44;100875.97;;;10.05;100.00
72925;BME280;61070;50.794;7.054;2023-04-29T06:07:11;100879.50;;;10.09;100.00
72925;BME280;61070;50.794;7.054;2023-04-29T06:09:36;100883.81;;;10.16;100.00
72925;BME280;61070;50.794;7.054;2023-04-29T06:12:02;100884.69;;;10.16;100.00
72925;BME280;61070;50.794;7.054;2023-04-29T06:14:27;100889.03;;;10.30;100.00
72925;BME280;61070;50.794;7.054;2023-04-29T06:16:53;100892.59;;;10.32;100.00
72925;BME280;61070;50.794;7.054;2023-04-29T06:19:18;100890.84;;;10.18;100.00
72925;BME280;61070;50.794;7.054;2023-04-29T06:21:44;100892.59;;;10.32;100.00
72925;BME280;61070;50.794;7.054;2023-04-29T06:24:09;100898.84;;;10.14;100.00
72925;BME280;61070;50.794;7.054;2023-04-29T06:26:34;100902.28;;;10.34;100.00
72925;BME280;61070;50.794;7.054;2023-04-29T06:29:01;100913.75;;;10.35;100.00
72925;BME280;61070;50.794;7.054;2023-04-29T06:31:26;100899.63;;;10.30;100.00
72925;BME280;61070;50.794;7.054;2023-04-29T06:33:51;100920.78;;;10.37;100.00
72925;BME280;61070;50.794;7.054;2023-04-29T06:36:17;100914.56;;;10.40;100.00
72925;BME280;61070;50.794;7.054;2023-04-29T06:38:42;100915.50;;;10.34;100.00
72925;BME280;61070;50.794;7.054;2023-04-29T06:41:07;100911.91;;;10.40;100.00
72925;BME280;61070;50.794;7.054;2023-04-29T06:43:33;100926.13;;;10.31;100.00
72925;BME280;61070;50.794;7.054;2023-04-29T06:45:58;100927.00;;;10.32;100.00
72925;BME280;61070;50.794;7.054;2023-04-29T06:48:24;100929.66;;;10.27;100.00
72925;BME280;61070;50.794;7.054;2023-04-29T06:50:56;100938.38;;;10.46;100.00
72925;BME280;61070;50.794;7.054;2023-04-29T06:53:22;100933.06;;;10.46;100.00
72925;BME280;61070;50.794;7.054;2023-04-29T06:55:48;100943.66;;;10.46;100.00
72925;BME280;61070;50.794;7.054;2023-04-29T06:58:16;100938.31;;;10.55;100.00
72925;BME280;61070;50.794;7.054;2023-04-29T07:00:46;100940.97;;;10.49;100.00
72925;BME280;61070;50.794;7.054;2023-04-29T07:03:12;100944.50;;;10.51;100.00
72925;BME280;61070;50.794;7.054;2023-04-29T07:05:38;100942.66;;;10.61;100.00
72925;BME280;61070;50.794;7.054;2023-04-29T07:08:06;100947.94;;;10.65;100.00
72925;BME280;61070;50.794;7.054;2023-04-29T07:10:31;100949.63;;;10.72;100.00
72925;BME280;61070;50.794;7.054;2023-04-29T07:12:56;100950.41;;;10.84;100.00
72925;BME280;61070;50.794;7.054;2023-04-29T07:15:22;100949.50;;;10.86;100.00
72925;BME280;61070;50.794;7.054;2023-04-29T07:17:47;100959.31;;;10.76;100.00
72925;BME280;61070;50.794;7.054;2023-04-29T07:20:13;100965.44;;;10.83;100.00
72925;BME280;61070;50.794;7.054;2023-04-29T07:22:38;100981.50;;;10.62;100.00
72925;BME280;61070;50.794;7.054;2023-04-29T07:25:04;100977.13;;;10.58;100.00
72925;BME280;61070;50.794;7.054;2023-04-29T07:27:32;100985.06;;;10.59;100.00
72925;BME280;61070;50.794;7.054;2023-04-29T07:29:59;100986.81;;;10.59;100.00
72925;BME280;61070;50.794;7.054;2023-04-29T07:32:25;100991.22;;;10.61;100.00
72925;BME280;61070;50.794;7.054;2023-04-29T07:34:50;100990.25;;;10.73;100.00
72925;BME280;61070;50.794;7.054;2023-04-29T07:37:16;100987.50;;;10.85;100.00
72925;BME280;61070;50.794;7.054;2023-04-29T07:39:42;101000.00;;;10.68;100.00
72925;BME280;61070;50.794;7.054;2023-04-29T07:42:07;100990.13;;;10.85;100.00
72925;BME280;61070;50.794;7.054;2023-04-29T07:44:32;100993.91;;;10.58;100.00
72925;BME280;61070;50.794;7.054;2023-04-29T07:46:58;100987.63;;;10.70;100.00
72925;BME280;61070;50.794;7.054;2023-04-29T07:49:23;100988.53;;;10.69;100.00
72925;BME280;61070;50.794;7.054;2023-04-29T07:51:50;100998.09;;;10.84;100.00
72925;BME280;61070;50.794;7.054;2023-04-29T07:54:15;100991.91;;;10.88;100.00
72925;BME280;61070;50.794;7.054;2023-04-29T07:56:41;100988.16;;;11.08;100.00
72925;BME280;61070;50.794;7.054;2023-04-29T07:59:07;100993.31;;;11.25;100.00
72925;BME280;61070;50.794;7.054;2023-04-29T08:01:32;100988.78;;;11.36;100.00
72925;BME280;61070;50.794;7.054;2023-04-29T08:03:58;100993.06;;;11.48;100.00
72925;BME280;61070;50.794;7.054;2023-04-29T08:06:23;101001.72;;;11.67;100.00
72925;BME280;61070;50.794;7.054;2023-04-29T08:08:48;100998.44;;;11.45;100.00
72925;BME280;61070;50.794;7.054;2023-04-29T08:11:15;101006.03;;;11.76;100.00
72925;BME280;61070;50.794;7.054;2023-04-29T08:13:41;101001.44;;;11.93;98.69
72925;BME280;61070;50.794;7.054;2023-04-29T08:16:06;101007.28;;;12.18;98.03
72925;BME280;61070;50.794;7.054;2023-04-29T08:18:33;101014.94;;;11.70;97.67
72925;BME280;61070;50.794;7.054;2023-04-29T08:20:58;101007.03;;;11.67;97.37
72925;BME280;61070;50.794;7.054;2023-04-29T08:23:24;101017.50;;;11.81;98.77
72925;BME280;61070;50.794;7.054;2023-04-29T08:25:50;101017.41;;;11.87;96.23
72925;BME280;61070;50.794;7.054;2023-04-29T08:28:16;101019.31;;;11.74;96.04
72925;BME280;61070;50.794;7.054;2023-04-29T08:30:41;101016.78;;;11.66;96.64
72925;BME280;61070;50.794;7.054;2023-04-29T08:33:07;101024.09;;;11.42;97.23
72925;BME280;61070;50.794;7.054;2023-04-29T08:35:33;101023.81;;;11.66;97.29
72925;BME280;61070;50.794;7.054;2023-04-29T08:38:01;101025.84;;;11.44;97.15
72925;BME280;61070;50.794;7.054;2023-04-29T08:40:29;101034.72;;;11.40;96.83
72925;BME280;61070;50.794;7.054;2023-04-29T08:42:55;101031.25;;;11.35;97.89
72925;BME280;61070;50.794;7.054;2023-04-29T08:45:23;101037.28;;;11.49;97.00
72925;BME280;61070;50.794;7.054;2023-04-29T08:47:49;101044.47;;;11.38;97.82
72925;BME280;61070;50.794;7.054;2023-04-29T08:50:15;101045.31;;;11.45;98.44
72925;BME280;61070;50.794;7.054;2023-04-29T08:52:42;101044.44;;;11.40;97.08
72925;BME280;61070;50.794;7.054;2023-04-29T08:55:07;101052.22;;;11.58;98.06
72925;BME280;61070;50.794;7.054;2023-04-29T08:57:35;101049.84;;;11.29;97.85
72925;BME280;61070;50.794;7.054;2023-04-29T09:00:08;101046.34;;;11.27;97.26
72925;BME280;61070;50.794;7.054;2023-04-29T09:02:39;101049.78;;;11.38;96.26
72925;BME280;61070;50.794;7.054;2023-04-29T09:05:09;101059.50;;;11.37;96.43
72925;BME280;61070;50.794;7.054;2023-04-29T09:07:37;101060.63;;;11.07;95.87
72925;BME280;61070;50.794;7.054;2023-04-29T09:10:06;101059.72;;;11.13;95.93
72925;BME280;61070;50.794;7.054;2023-04-29T09:12:32;101067.63;;;11.18;95.98
72925;BME280;61070;50.794;7.054;2023-04-29T09:14:57;101063.09;;;11.30;95.84
72925;BME280;61070;50.794;7.054;2023-04-29T09:17:42;101073.75;;;11.27;94.10
72925;BME280;61070;50.794;7.054;2023-04-29T09:22:50;101069.25;;;11.32;94.17
72925;BME280;61070;50.794;7.054;2023-04-29T09:25:16;101075.25;;;11.53;94.18
72925;BME280;61070;50.794;7.054;2023-04-29T09:27:41;101070.94;;;11.43;93.47
72925;BME280;61070;50.794;7.054;2023-04-29T09:30:07;101067.94;;;11.76;92.71
72925;BME280;61070;50.794;7.054;2023-04-29T09:32:33;101072.50;;;11.63;92.82
72925;BME280;61070;50.794;7.054;2023-04-29T09:37:46;101060.47;;;12.13;90.66
72925;BME280;61070;50.794;7.054;2023-04-29T09:40:35;101061.03;;;12.38;88.26
72925;BME280;61070;50.794;7.054;2023-04-29T09:43:01;101074.69;;;12.75;87.99
72925;BME280;61070;50.794;7.054;2023-04-29T09:45:33;101063.81;;;12.89;86.03
72925;BME280;61070;50.794;7.054;2023-04-29T09:48:07;101076.78;;;12.52;86.11
72925;BME280;61070;50.794;7.054;2023-04-29T09:50:39;101068.59;;;12.69;85.74
72925;BME280;61070;50.794;7.054;2023-04-29T09:53:07;101073.16;;;12.56;86.73
72925;BME280;61070;50.794;7.054;2023-04-29T09:58:32;101085.06;;;12.92;85.58
72925;BME280;61070;50.794;7.054;2023-04-29T10:01:05;101091.75;;;12.59;85.78
72925;BME280;61070;50.794;7.054;2023-04-29T10:03:32;101096.88;;;12.73;84.72
72925;BME280;61070;50.794;7.054;2023-04-29T10:06:03;101093.59;;;12.52;84.75
72925;BME280;61070;50.794;7.054;2023-04-29T10:08:29;101089.66;;;12.81;83.34
72925;BME280;61070;50.794;7.054;2023-04-29T10:10:58;101097.34;;;12.99;84.50
72925;BME280;61070;50.794;7.054;2023-04-29T10:13:24;101091.66;;;12.65;83.42
72925;BME280;61070;50.794;7.054;2023-04-29T10:18:40;101106.81;;;12.60;85.53
72925;BME280;61070;50.794;7.054;2023-04-29T10:21:09;101114.41;;;12.86;85.01
72925;BME280;61070;50.794;7.054;2023-04-29T10:23:36;101109.31;;;12.71;84.40
72925;BME280;61070;50.794;7.054;2023-04-29T10:26:02;101113.06;;;12.54;84.43
72925;BME280;61070;50.794;7.054;2023-04-29T10:28:30;101115.41;;;12.77;84.50
72925;BME280;61070;50.794;7.054;2023-04-29T10:30:58;101117.44;;;12.60;84.27
72925;BME280;61070;50.794;7.054;2023-04-29T10:33:25;101115.69;;;12.58;84.37
72925;BME280;61070;50.794;7.054;2023-04-29T10:35:52;101116.72;;;12.47;85.61
72925;BME280;61070;50.794;7.054;2023-04-29T10:38:38;101114.06;;;12.47;85.46
72925;BME280;61070;50.794;7.054;2023-04-29T10:41:25;101113.34;;;12.33;86.29
72925;BME280;61070;50.794;7.054;2023-04-29T10:43:53;101116.88;;;12.35;86.88
72925;BME280;61070;50.794;7.054;2023-04-29T10:46:22;101124.09;;;12.21;87.90
72925;BME280;61070;50.794;7.054;2023-04-29T10:48:56;101129.50;;;12.15;88.17
72925;BME280;61070;50.794;7.054;2023-04-29T10:54:12;101125.03;;;12.18;88.36
72925;BME280;61070;50.794;7.054;2023-04-29T10:56:43;101129.13;;;12.44;88.16
72925;BME280;61070;50.794;7.054;2023-04-29T10:59:13;101132.41;;;12.66;87.08
72925;BME280;61070;50.794;7.054;2023-04-29T11:01:47;101136.25;;;12.42;87.79
72925;BME280;61070;50.794;7.054;2023-04-29T11:04:13;101136.22;;;12.46;87.31
72925;BME280;61070;50.794;7.054;2023-04-29T11:06:40;101136.09;;;12.54;86.72
72925;BME280;61070;50.794;7.054;2023-04-29T11:09:20;101139.47;;;11.93;88.57
72925;BME280;61070;50.794;7.054;2023-04-29T11:12:09;101135.84;;;12.02;89.83
72925;BME280;61070;50.794;7.054;2023-04-29T11:14:45;101146.69;;;11.79;90.31
72925;BME280;61070;50.794;7.054;2023-04-29T11:17:14;101149.25;;;11.89;90.52
72925;BME280;61070;50.794;7.054;2023-04-29T11:19:41;101145.59;;;12.01;90.69
72925;BME280;61070;50.794;7.054;2023-04-29T11:27:17;101144.56;;;12.14;89.95
72925;BME280;61070;50.794;7.054;2023-04-29T11:29:45;101143.91;;;11.92;91.06
72925;BME280;61070;50.794;7.054;2023-04-29T11:32:11;101152.59;;;12.08;90.76
72925;BME280;61070;50.794;7.054;2023-04-29T11:34:37;101152.81;;;11.85;91.13
72925;BME280;61070;50.794;7.054;2023-04-29T11:37:04;101155.53;;;11.75;92.87
72925;BME280;61070;50.794;7.054;2023-04-29T11:39:33;101149.50;;;11.59;94.05
72925;BME280;61070;50.794;7.054;2023-04-29T11:42:07;101152.09;;;11.66;95.48
72925;BME280;61070;50.794;7.054;2023-04-29T11:44:33;101170.66;;;11.68;95.73
72925;BME280;61070;50.794;7.054;2023-04-29T11:47:06;101159.28;;;11.55;95.62
72925;BME280;61070;50.794;7.054;2023-04-29T11:49:33;101162.81;;;11.53;96.23
72925;BME280;61070;50.794;7.054;2023-04-29T11:51:59;101166.19;;;11.73;96.24
72925;BME280;61070;50.794;7.054;2023-04-29T11:54:28;101166.94;;;11.90;95.84
72925;BME280;61070;50.794;7.054;2023-04-29T11:56:54;101166.84;;;12.01;93.98
72925;BME280;61070;50.794;7.054;2023-04-29T11:59:20;101174.91;;;11.90;94.34
72925;BME280;61070;50.794;7.054;2023-04-29T12:01:47;101175.00;;;11.78;95.24
72925;BME280;61070;50.794;7.054;2023-04-29T12:04:13;101178.66;;;11.62;95.56
72925;BME280;61070;50.794;7.054;2023-04-29T12:06:38;101179.44;;;11.73;95.49
72925;BME280;61070;50.794;7.054;2023-04-29T12:09:03;101175.19;;;11.52;96.49
72925;BME280;61070;50.794;7.054;2023-04-29T12:11:29;101176.03;;;11.59;96.60
72925;BME280;61070;50.794;7.054;2023-04-29T12:13:55;101181.25;;;11.71;96.03
72925;BME280;61070;50.794;7.054;2023-04-29T12:16:21;101181.19;;;11.80;96.15
72925;BME280;61070;50.794;7.054;2023-04-29T12:18:51;101180.25;;;11.84;95.79
72925;BME280;61070;50.794;7.054;2023-04-29T12:21:17;101177.63;;;11.83;95.67
72925;BME280;61070;50.794;7.054;2023-04-29T12:23:42;101184.09;;;11.44;97.40
72925;BME280;61070;50.794;7.054;2023-04-29T12:26:07;101180.75;;;11.23;97.69
72925;BME280;61070;50.794;7.054;2023-04-29T12:28:33;101175.28;;;11.42;98.29
72925;BME280;61070;50.794;7.054;2023-04-29T12:30:59;101183.31;;;11.35;98.76
72925;BME280;61070;50.794;7.054;2023-04-29T12:33:27;101180.66;;;11.35;97.85
72925;BME280;61070;50.794;7.054;2023-04-29T12:35:55;101182.16;;;11.65;97.41
72925;BME280;61070;50.794;7.054;2023-04-29T12:38:25;101184.72;;;11.76;96.45
72925;BME280;61070;50.794;7.054;2023-04-29T12:40:55;101186.47;;;11.85;95.65
72925;BME280;61070;50.794;7.054;2023-04-29T12:43:26;101187.47;;;11.69;96.43
72925;BME280;61070;50.794;7.054;2023-04-29T12:45:53;101193.56;;;11.83;96.44
72925;BME280;61070;50.794;7.054;2023-04-29T12:48:19;101194.47;;;11.79;96.95
72925;BME280;61070;50.794;7.054;2023-04-29T12:50:48;101192.66;;;11.84;95.80
72925;BME280;61070;50.794;7.054;2023-04-29T12:53:14;101194.50;;;11.71;96.72
72925;BME280;61070;50.794;7.054;2023-04-29T12:55:39;101197.00;;;11.92;95.54
72925;BME280;61070;50.794;7.054;2023-04-29T12:58:05;101189.69;;;12.17;95.40
72925;BME280;61070;50.794;7.054;2023-04-29T13:00:31;101193.09;;;12.29;94.60
72925;BME280;61070;50.794;7.054;2023-04-29T13:02:58;101184.56;;;12.74;92.06
72925;BME280;61070;50.794;7.054;2023-04-29T13:05:23;101189.97;;;12.67;91.66
72925;BME280;61070;50.794;7.054;2023-04-29T13:07:49;101184.47;;;12.83;89.66
72925;BME280;61070;50.794;7.054;2023-04-29T13:10:14;101187.59;;;13.11;88.37